This is the latest recevied weather packets stored in our database for station/object F4ELU-13. If no packets are shown the sender has not sent any weather packets the latest 10 day(s).
| Time | Temp. | Humidity | Pressure | Rain* | Wind** | Luminosity | Snow |
|---|---|---|---|---|---|---|---|
| 1777656963 | 22.22° C | 71% | 1019.6 hPa | 0 mm | - | - | - |
| 1777656423 | 22.78° C | 66% | 1019.6 hPa | 0 mm | - | - | - |
| 1777655883 | 22.78° C | 65% | 1019.5 hPa | 0 mm | - | - | - |
| 1777655343 | 22.78° C | 65% | 1019.6 hPa | 0 mm | - | - | - |
| 1777654803 | 22.78° C | 65% | 1019.6 hPa | 0 mm | - | - | - |
| 1777654443 | 23.33° C | 64% | 1019.6 hPa | 0 mm | - | - | - |
| 1777653903 | 23.33° C | 64% | 1019.7 hPa | 0 mm | - | - | - |
| 1777653363 | 24.44° C | 60% | 1019.8 hPa | 0 mm | - | - | - |
| 1777652823 | 24.44° C | 60% | 1019.7 hPa | 0 mm | - | - | - |
| 1777652283 | 24.44° C | 62% | 1019.8 hPa | 0 mm | - | - | - |
| 1777651743 | 23.33° C | 64% | 1019.7 hPa | 0 mm | - | - | - |
| 1777651203 | 23.89° C | 63% | 1019.7 hPa | 0 mm | - | - | - |
| 1777650843 | 24.44° C | 61% | 1020 hPa | 0 mm | - | - | - |
| 1777650303 | 23.89° C | 64% | 1019.9 hPa | 0 mm | - | - | - |
| 1777649763 | 23.33° C | 64% | 1020 hPa | 0 mm | - | - | - |
| 1777649223 | 23.33° C | 64% | 1020.1 hPa | 0 mm | - | - | - |
| 1777648683 | 23.33° C | 61% | 1020.2 hPa | 0 mm | - | - | - |
| 1777648143 | 23.33° C | 66% | 1020.3 hPa | 0 mm | - | - | - |
| 1777647603 | 23.33° C | 67% | 1020.2 hPa | 0 mm | - | - | - |
| 1777647243 | 23.33° C | 68% | 1020.3 hPa | 0 mm | - | - | - |
| 1777646703 | 23.33° C | 65% | 1020.5 hPa | 0 mm | - | - | - |
| 1777646163 | 23.33° C | 66% | 1020.5 hPa | 0 mm | - | - | - |
| 1777645624 | 22.78° C | 67% | 1020.5 hPa | 0 mm | - | - | - |
| 1777645083 | 22.78° C | 65% | 1020.6 hPa | 0 mm | - | - | - |
| 1777644543 | 22.78° C | 67% | 1020.7 hPa | 0 mm | - | - | - |
* Rain latest hour (hover to see other rain measurements)
** Current wind speed in m/s (hover to see current wind gust speed)